Time;durP1;ratioP1;P1;durP2;ratioP2;P2;SDS_P1;SDS_P2;PMS_P1;PMS_P2;Temp;Humidity;BMP_temperature;BMP_pressure;BME280_temperature;BME280_humidity;BME280_pressure;Samples;Min_cycle;Max_cycle;Signal;HPM_P1;HPM_P2
2022/10/01 00:00:53;;;;;;;0.08;0.08;;;;;;;10.02;100.00;100296.09;5044508;28;20078;-75
2022/10/01 00:03:21;;;;;;;0.10;0.10;;;;;;;10.06;100.00;100282.28;5045309;28;20055;-79
2022/10/01 00:05:56;;;;;;;0.10;0.10;;;;;;;10.08;100.00;100314.38;5025468;28;20029;-78
2022/10/01 00:08:21;;;;;;;0.10;0.10;;;;;;;10.03;100.00;100284.38;5039788;28;20050;-76
2022/10/01 00:10:47;;;;;;;0.10;0.10;;;;;;;9.92;100.00;100250.44;5019635;28;20487;-75
2022/10/01 00:13:12;;;;;;;0.10;0.10;;;;;;;9.96;100.00;100278.69;5029559;28;20033;-76
2022/10/01 00:15:39;;;;;;;0.10;0.10;;;;;;;10.04;100.00;100235.13;5029139;28;20497;-79
2022/10/01 00:18:05;;;;;;;0.10;0.10;;;;;;;10.06;100.00;100223.28;5027988;28;20492;-75
2022/10/01 00:20:30;;;;;;;0.00;0.00;;;;;;;9.84;100.00;100232.31;5029400;28;20025;-75
2022/10/01 00:22:55;;;;;;;0.10;0.10;;;;;;;9.92;100.00;100242.38;5025854;28;20087;-75
2022/10/01 00:25:24;;;;;;;0.10;0.10;;;;;;;10.06;100.00;100251.94;5028687;28;20507;-77
2022/10/01 00:27:49;;;;;;;0.03;0.03;;;;;;;10.03;100.00;100276.34;5029796;28;20037;-75
2022/10/01 00:30:14;;;;;;;0.10;0.10;;;;;;;9.92;100.00;100244.25;5046607;28;20036;-80
2022/10/01 00:32:40;;;;;;;0.10;0.10;;;;;;;10.04;100.00;100240.50;5046309;28;20029;-77
2022/10/01 00:35:08;;;;;;;0.10;0.10;;;;;;;9.97;100.00;100208.00;5042257;28;20470;-75
2022/10/01 00:37:36;;;;;;;0.10;0.10;;;;;;;9.86;100.00;100214.28;5042298;28;20021;-76
2022/10/01 00:40:03;;;;;;;0.03;0.03;;;;;;;9.91;100.00;100229.97;5044162;28;20063;-75
2022/10/01 00:42:29;;;;;;;0.00;0.00;;;;;;;10.05;100.00;100220.75;5043148;28;20432;-78
2022/10/01 00:44:55;;;;;;;0.10;0.10;;;;;;;10.12;100.00;100211.19;5050347;28;20035;-77
2022/10/01 00:47:26;;;;;;;0.10;0.10;;;;;;;9.92;100.00;100193.28;5049016;28;20033;-76
2022/10/01 00:49:55;;;;;;;0.10;0.10;;;;;;;9.99;100.00;100184.56;5044128;28;20029;-76
2022/10/01 00:52:24;;;;;;;0.10;0.10;;;;;;;10.14;100.00;100227.16;5039662;28;20041;-78
2022/10/01 00:54:54;;;;;;;0.10;0.10;;;;;;;9.98;100.00;100227.59;5042737;28;20052;-75
2022/10/01 00:57:23;;;;;;;0.10;0.10;;;;;;;10.14;100.00;100229.81;5027448;28;20153;-75
2022/10/01 00:59:49;;;;;;;0.10;0.10;;;;;;;10.02;100.00;100224.53;5043332;28;20059;-75
2022/10/01 01:02:14;;;;;;;0.10;0.10;;;;;;;9.93;100.00;100198.50;5026795;28;20028;-79
2022/10/01 01:04:40;;;;;;;0.10;0.10;;;;;;;9.99;100.00;100219.44;5041133;28;20401;-80
2022/10/01 01:07:06;;;;;;;0.10;0.10;;;;;;;9.95;100.00;100187.63;5041273;28;20100;-74
2022/10/01 01:09:41;;;;;;;0.10;0.10;;;;;;;9.99;100.00;100192.63;5025873;28;20103;-76
2022/10/01 01:12:06;;;;;;;0.10;0.10;;;;;;;9.92;100.00;100195.97;5044208;28;20533;-75
2022/10/01 01:14:45;;;;;;;0.00;0.00;;;;;;;10.16;100.00;100198.34;5043309;28;20048;-76
2022/10/01 01:17:15;;;;;;;0.10;0.10;;;;;;;10.06;100.00;100195.63;5041663;28;20025;-79
2022/10/01 01:20:07;;;;;;;0.10;0.10;;;;;;;10.07;100.00;100178.53;5040550;28;20047;-76
2022/10/01 01:22:36;;;;;;;0.10;0.10;;;;;;;9.86;100.00;100167.81;5026032;28;20033;-77
2022/10/01 01:25:16;;;;;;;0.00;0.00;;;;;;;9.84;100.00;100133.13;5024928;28;20083;-81
2022/10/01 01:27:56;;;;;;;0.10;0.10;;;;;;;9.94;100.00;100116.22;5041786;28;20506;-76
2022/10/01 01:30:21;;;;;;;0.00;0.00;;;;;;;9.95;100.00;100027.59;5043605;28;20238;-78
2022/10/01 01:33:02;;;;;;;0.00;0.00;;;;;;;9.90;100.00;100092.38;5043200;28;20032;-76
2022/10/01 01:35:34;;;;;;;0.10;0.10;;;;;;;9.74;100.00;100094.66;5023273;28;20037;-72
2022/10/01 01:38:03;;;;;;;0.08;0.08;;;;;;;9.84;100.00;100127.75;5042709;28;20033;-79
2022/10/01 01:40:30;;;;;;;0.10;0.10;;;;;;;9.81;100.00;100085.13;5041825;28;20075;-78
2022/10/01 01:42:57;;;;;;;0.10;0.10;;;;;;;9.93;100.00;100109.19;5040491;28;20127;-77
2022/10/01 01:45:27;;;;;;;0.10;0.10;;;;;;;9.90;100.00;100087.00;5045303;28;20504;-77
2022/10/01 01:47:54;;;;;;;0.00;0.00;;;;;;;9.81;100.00;100062.81;5024883;28;20074;-77
2022/10/01 01:50:20;;;;;;;0.08;0.08;;;;;;;9.92;100.00;100065.41;5033077;28;20410;-77
2022/10/01 01:52:45;;;;;;;0.10;0.10;;;;;;;10.08;100.00;100032.72;5022405;28;20029;-76
2022/10/01 01:55:12;;;;;;;0.00;0.00;;;;;;;9.96;100.00;100063.31;5021214;28;20044;-82
2022/10/01 01:57:42;;;;;;;0.05;0.05;;;;;;;10.03;100.00;100054.59;5025502;28;20068;-76
2022/10/01 02:00:09;;;;;;;0.10;0.10;;;;;;;9.99;100.00;100050.50;5025504;28;20032;-77
2022/10/01 02:02:36;;;;;;;0.08;0.08;;;;;;;10.12;100.00;100044.03;5043211;28;20029;-78
2022/10/01 02:05:06;;;;;;;0.10;0.10;;;;;;;9.95;100.00;100030.28;5039982;28;20621;-77
2022/10/01 02:07:34;;;;;;;0.08;0.08;;;;;;;10.12;100.00;100055.63;5042359;28;20116;-77
2022/10/01 02:10:33;;;;;;;0.10;0.10;;;;;;;10.15;100.00;100065.22;5039934;28;20029;-75
2022/10/01 02:13:29;;;;;;;0.00;0.00;;;;;;;10.18;100.00;100057.75;5040806;28;20035;-74
2022/10/01 02:16:00;;;;;;;0.03;0.03;;;;;;;10.33;100.00;100046.63;5044462;28;20043;-76
2022/10/01 02:18:39;;;;;;;0.10;0.10;;;;;;;10.25;100.00;100054.50;5025341;28;20084;-77
2022/10/01 02:21:14;;;;;;;0.00;0.00;;;;;;;10.26;100.00;100040.13;5043858;28;20040;-76
2022/10/01 02:23:42;;;;;;;0.10;0.10;;;;;;;10.19;100.00;100024.59;5020577;28;20029;-75
2022/10/01 02:26:11;;;;;;;0.00;0.00;;;;;;;10.21;100.00;100048.59;5022804;28;20459;-79
2022/10/01 02:28:38;;;;;;;0.00;0.00;;;;;;;10.25;100.00;100030.38;5042658;28;21300;-71
2022/10/01 02:31:04;;;;;;;0.10;0.10;;;;;;;9.88;100.00;99999.63;5025881;28;20037;-77
2022/10/01 02:33:31;;;;;;;0.10;0.10;;;;;;;10.00;100.00;100030.72;5044236;28;20043;-76
2022/10/01 02:35:57;;;;;;;0.00;0.00;;;;;;;9.92;100.00;100013.63;5045912;28;20531;-81
2022/10/01 02:38:23;;;;;;;0.00;0.00;;;;;;;9.92;100.00;100009.09;5029733;28;20525;-77
2022/10/01 02:40:51;;;;;;;0.10;0.10;;;;;;;9.82;100.00;99981.41;5045083;28;20087;-75
2022/10/01 02:43:20;;;;;;;0.00;0.00;;;;;;;10.16;100.00;99965.84;5046520;28;20473;-77
2022/10/01 02:45:52;;;;;;;0.10;0.10;;;;;;;9.92;100.00;99986.81;5045991;28;20021;-77
2022/10/01 02:48:18;;;;;;;0.10;0.10;;;;;;;10.19;100.00;99976.31;5046553;28;20028;-74
2022/10/01 02:50:58;;;;;;;0.00;0.00;;;;;;;10.10;100.00;99974.44;5042653;28;20025;-76
2022/10/01 02:53:31;;;;;;;0.00;0.00;;;;;;;10.14;100.00;100008.06;5047153;28;20033;-78
2022/10/01 02:55:57;;;;;;;0.00;0.00;;;;;;;10.08;100.00;100005.03;5028776;28;20443;-74
2022/10/01 02:58:22;;;;;;;0.00;0.00;;;;;;;10.01;100.00;100005.63;5045454;28;20064;-80
2022/10/01 03:00:48;;;;;;;0.10;0.10;;;;;;;10.10;100.00;100006.63;5029409;28;20124;-74
2022/10/01 03:03:13;;;;;;;0.10;0.10;;;;;;;10.04;100.00;99994.63;5030161;28;20383;-75
2022/10/01 03:05:39;;;;;;;0.10;0.10;;;;;;;10.15;100.00;100020.47;5050130;28;20398;-74
2022/10/01 03:08:04;;;;;;;0.00;0.00;;;;;;;9.89;100.00;99956.63;5044244;28;20055;-79
2022/10/01 03:10:29;;;;;;;0.08;0.08;;;;;;;9.98;100.00;99976.38;5027516;28;20033;-80
2022/10/01 03:12:55;;;;;;;0.00;0.00;;;;;;;10.09;100.00;99974.56;5044539;28;20033;-76
2022/10/01 03:15:20;;;;;;;0.00;0.00;;;;;;;10.14;100.00;100002.69;5029975;28;20029;-76
2022/10/01 03:17:50;;;;;;;0.10;0.10;;;;;;;10.15;100.00;100017.78;5045652;28;20029;-77
2022/10/01 03:20:15;;;;;;;0.00;0.00;;;;;;;10.04;100.00;99993.75;5046914;28;20032;-78
2022/10/01 03:22:43;;;;;;;0.00;0.00;;;;;;;10.01;100.00;99972.56;5046147;28;20036;-79
2022/10/01 03:25:08;;;;;;;0.00;0.00;;;;;;;10.21;100.00;99990.41;5027102;28;20439;-79
2022/10/01 03:27:34;;;;;;;0.00;0.00;;;;;;;10.10;100.00;99985.16;5045729;28;20078;-76
2022/10/01 03:29:59;;;;;;;0.00;0.00;;;;;;;10.10;100.00;99973.56;5031086;28;20338;-78
2022/10/01 03:32:25;;;;;;;0.00;0.00;;;;;;;10.15;100.00;99982.94;5029863;28;20033;-76
2022/10/01 03:34:50;;;;;;;0.00;0.00;;;;;;;10.17;100.00;99996.19;5045224;28;20472;-78
2022/10/01 03:37:15;;;;;;;0.10;0.10;;;;;;;10.31;100.00;99997.63;5045374;28;20110;-78
2022/10/01 03:39:40;;;;;;;0.10;0.10;;;;;;;10.31;100.00;99998.50;5045019;28;20041;-77
2022/10/01 03:42:06;;;;;;;0.00;0.00;;;;;;;10.29;100.00;99973.63;5041217;28;20032;-78
2022/10/01 03:44:32;;;;;;;0.00;0.00;;;;;;;10.39;100.00;100002.31;5039719;28;20025;-79
2022/10/01 03:46:57;;;;;;;0.00;0.00;;;;;;;10.28;100.00;99979.13;5046190;28;20135;-79
2022/10/01 03:49:23;;;;;;;0.00;0.00;;;;;;;10.26;100.00;99989.13;5044214;28;20132;-77
2022/10/01 03:51:48;;;;;;;0.10;0.10;;;;;;;10.39;100.00;99981.72;5043696;28;20032;-79
2022/10/01 03:54:14;;;;;;;0.10;0.10;;;;;;;10.40;100.00;99986.09;5028363;28;20036;-80
2022/10/01 03:56:42;;;;;;;0.00;0.00;;;;;;;10.45;100.00;99985.69;5045635;28;20068;-77
2022/10/01 03:59:08;;;;;;;0.00;0.00;;;;;;;10.32;100.00;99967.13;5043606;28;20085;-78
2022/10/01 04:01:34;;;;;;;0.10;0.10;;;;;;;10.46;100.00;99984.69;5027135;28;20025;-76
2022/10/01 04:03:59;;;;;;;0.00;0.00;;;;;;;10.35;100.00;99964.16;5041340;28;20493;-74
2022/10/01 04:06:24;;;;;;;0.00;0.00;;;;;;;10.53;100.00;99984.97;5038335;28;20043;-77
2022/10/01 04:08:50;;;;;;;0.00;0.00;;;;;;;10.42;100.00;99980.59;5037283;28;20053;-76
2022/10/01 04:11:15;;;;;;;0.00;0.00;;;;;;;10.54;100.00;99987.53;5021773;28;20033;-74
2022/10/01 04:13:40;;;;;;;0.00;0.00;;;;;;;10.44;100.00;99978.63;5040306;28;20498;-78
2022/10/01 04:16:06;;;;;;;0.00;0.00;;;;;;;10.53;100.00;99977.78;5043987;28;20049;-77
2022/10/01 04:18:31;;;;;;;0.00;0.00;;;;;;;10.47;100.00;99948.81;5028221;28;20045;-78
2022/10/01 04:20:56;;;;;;;0.00;0.00;;;;;;;10.52;100.00;99961.81;5045128;28;20028;-76
2022/10/01 04:23:22;;;;;;;0.00;0.00;;;;;;;10.71;100.00;99993.19;5041722;28;20572;-77
2022/10/01 04:25:48;;;;;;;0.00;0.00;;;;;;;10.68;100.00;99975.53;5040585;28;20154;-75
2022/10/01 04:28:13;;;;;;;0.00;0.00;;;;;;;10.85;100.00;99989.22;5042947;28;20391;-72
2022/10/01 04:30:42;;;;;;;0.10;0.10;;;;;;;10.82;100.00;100000.25;5027778;28;20078;-77
2022/10/01 04:33:13;;;;;;;0.10;0.10;;;;;;;10.72;100.00;99974.25;5026259;28;20383;-78
2022/10/01 04:35:39;;;;;;;0.05;0.05;;;;;;;10.81;100.00;99991.34;5042529;28;20044;-72
2022/10/01 04:38:06;;;;;;;0.00;0.00;;;;;;;10.96;100.00;100002.50;5025878;28;20246;-75
2022/10/01 04:40:34;;;;;;;0.00;0.00;;;;;;;10.97;100.00;100009.56;5043670;28;20033;-76
2022/10/01 04:43:00;;;;;;;0.03;0.03;;;;;;;10.85;100.00;99995.44;5039310;28;20052;-73
2022/10/01 04:45:25;;;;;;;0.00;0.00;;;;;;;11.05;100.00;100016.91;5046205;28;20506;-71
2022/10/01 04:47:52;;;;;;;0.08;0.08;;;;;;;11.05;100.00;100035.72;5043513;28;20115;-78
2022/10/01 04:50:19;;;;;;;0.00;0.00;;;;;;;11.03;100.00;100022.41;5039283;28;20029;-77
2022/10/01 04:52:45;;;;;;;0.00;0.00;;;;;;;10.94;100.00;100023.28;5044076;28;20032;-74
2022/10/01 04:55:10;;;;;;;0.00;0.00;;;;;;;10.96;100.00;100034.75;5041319;28;20029;-76
2022/10/01 04:57:40;;;;;;;0.00;0.00;;;;;;;11.11;100.00;100027.09;5043230;28;20103;-73
2022/10/01 05:00:07;;;;;;;0.10;0.10;;;;;;;10.99;100.00;100004.88;5041926;28;20041;-78
2022/10/01 05:02:33;;;;;;;0.00;0.00;;;;;;;11.11;100.00;100040.53;5044883;28;20067;-75
2022/10/01 05:04:59;;;;;;;0.00;0.00;;;;;;;10.91;100.00;100018.19;5038571;28;20554;-75
2022/10/01 05:07:25;;;;;;;0.00;0.00;;;;;;;10.91;100.00;100026.25;5040776;28;20032;-75
2022/10/01 05:09:50;;;;;;;0.00;0.00;;;;;;;11.16;100.00;100043.59;5032511;28;20029;-76
2022/10/01 05:12:15;;;;;;;0.00;0.00;;;;;;;11.10;100.00;100045.03;5043060;28;20110;-73
2022/10/01 05:14:41;;;;;;;0.00;0.00;;;;;;;11.12;100.00;100041.38;5038823;28;20357;-77
2022/10/01 05:17:06;;;;;;;0.03;0.03;;;;;;;10.95;100.00;100028.50;5042628;28;20034;-75
2022/10/01 05:19:32;;;;;;;0.10;0.10;;;;;;;10.90;100.00;100016.50;5042416;28;20075;-77
2022/10/01 05:21:58;;;;;;;0.05;0.05;;;;;;;11.15;100.00;100054.50;5027178;28;20033;-76
2022/10/01 05:24:23;;;;;;;0.00;0.00;;;;;;;11.01;100.00;100018.19;5043529;28;20421;-72
2022/10/01 05:26:48;;;;;;;0.10;0.10;;;;;;;11.14;100.00;100039.38;5043632;28;20037;-73
2022/10/01 05:29:14;;;;;;;0.10;0.10;;;;;;;11.14;100.00;100050.13;5037750;28;20076;-72
2022/10/01 05:31:43;;;;;;;0.10;0.10;;;;;;;11.35;100.00;100056.19;5045753;28;20037;-70
2022/10/01 05:34:08;;;;;;;0.03;0.03;;;;;;;11.29;100.00;100040.63;5027973;28;20588;-74
2022/10/01 05:36:33;;;;;;;0.10;0.10;;;;;;;11.31;100.00;100049.38;5058666;28;20471;-71
2022/10/01 05:39:00;;;;;;;0.00;0.00;;;;;;;11.33;100.00;100065.38;5039465;28;20040;-75
2022/10/01 05:41:25;;;;;;;0.05;0.05;;;;;;;11.27;100.00;100045.28;5039909;28;20198;-71
2022/10/01 05:43:51;;;;;;;0.10;0.10;;;;;;;11.34;100.00;100067.91;5051487;28;20040;-72
2022/10/01 05:46:16;;;;;;;0.08;0.08;;;;;;;11.42;100.00;100088.69;5040231;28;20032;-72
2022/10/01 05:48:42;;;;;;;0.00;0.00;;;;;;;11.36;100.00;100073.16;5040698;28;20060;-72
2022/10/01 05:51:07;;;;;;;0.10;0.10;;;;;;;11.42;100.00;100083.31;5041830;28;20028;-73
2022/10/01 05:53:36;;;;;;;0.10;0.10;;;;;;;11.48;100.00;100101.56;5043282;28;20588;-69
2022/10/01 05:56:02;;;;;;;0.00;0.00;;;;;;;11.54;100.00;100097.44;5041083;28;20443;-72
2022/10/01 05:58:27;;;;;;;0.10;0.10;;;;;;;11.50;100.00;100099.59;5040860;28;20074;-72
2022/10/01 06:00:53;;;;;;;0.10;0.10;;;;;;;11.38;100.00;100092.69;5040902;28;20037;-73
2022/10/01 06:03:19;;;;;;;0.00;0.00;;;;;;;11.46;100.00;100100.88;5044987;28;20040;-75
2022/10/01 06:05:44;;;;;;;0.00;0.00;;;;;;;11.55;100.00;100109.91;5040947;28;20052;-73
2022/10/01 06:08:10;;;;;;;0.00;0.00;;;;;;;11.58;100.00;100103.41;5039801;28;20052;-71
2022/10/01 06:10:36;;;;;;;0.20;0.20;;;;;;;11.69;100.00;100103.22;5039352;28;20455;-71
2022/10/01 06:13:04;;;;;;;0.10;0.10;;;;;;;11.54;100.00;100084.00;5036131;28;20584;-69
2022/10/01 06:15:33;;;;;;;0.00;0.00;;;;;;;11.68;100.00;100115.84;5038697;28;20037;-69
2022/10/01 06:18:01;;;;;;;0.10;0.10;;;;;;;11.64;100.00;100100.97;5040344;28;20158;-69
2022/10/01 06:20:27;;;;;;;0.10;0.10;;;;;;;11.75;100.00;100108.03;5043508;28;20044;-72
2022/10/01 06:22:54;;;;;;;0.10;0.10;;;;;;;11.81;100.00;100128.09;5043475;28;20029;-71
2022/10/01 06:25:19;;;;;;;0.03;0.03;;;;;;;11.72;100.00;100108.31;5040854;28;20074;-70
2022/10/01 06:27:50;;;;;;;0.10;0.10;;;;;;;11.85;100.00;100118.75;5042706;28;20033;-71
2022/10/01 06:30:16;;;;;;;0.00;0.00;;;;;;;11.84;100.00;100127.81;5040776;28;20200;-69
2022/10/01 06:32:41;;;;;;;0.10;0.10;;;;;;;11.81;100.00;100138.88;5034610;28;20028;-71
2022/10/01 06:35:07;;;;;;;0.10;0.10;;;;;;;11.81;100.00;100128.97;5034791;28;20313;-69
2022/10/01 06:37:36;;;;;;;0.08;0.08;;;;;;;11.84;100.00;100142.13;5044654;28;20106;-69
2022/10/01 06:40:01;;;;;;;0.10;0.10;;;;;;;11.91;100.00;100120.88;5038081;28;20025;-70
2022/10/01 06:42:26;;;;;;;0.10;0.10;;;;;;;11.78;100.00;100096.16;5041756;28;20040;-80
2022/10/01 06:44:52;;;;;;;0.00;0.00;;;;;;;11.95;100.00;100126.81;5038294;28;20029;-71
2022/10/01 06:47:17;;;;;;;0.08;0.08;;;;;;;12.11;100.00;100135.16;5040275;28;20027;-70
2022/10/01 06:49:42;;;;;;;0.10;0.10;;;;;;;12.13;100.00;100126.91;5040998;28;20033;-71
2022/10/01 06:54:52;;;;;;;0.00;0.00;;;;;;;12.29;100.00;100137.94;5040609;28;20044;-71
2022/10/01 06:57:17;;;;;;;0.10;0.10;;;;;;;12.40;100.00;100138.72;5038945;28;20036;-69
2022/10/01 06:59:43;;;;;;;0.00;0.00;;;;;;;12.30;100.00;100141.44;5040926;28;20025;-74
2022/10/01 07:02:20;;;;;;;0.10;0.10;;;;;;;12.33;100.00;100134.91;5039791;28;20052;-71
2022/10/01 07:04:46;;;;;;;0.10;0.10;;;;;;;12.15;100.00;100125.78;5035947;28;20029;-71
2022/10/01 07:07:12;;;;;;;0.10;0.10;;;;;;;12.32;100.00;100146.66;5042650;28;20078;-70
2022/10/01 07:09:37;;;;;;;0.00;0.00;;;;;;;12.40;100.00;100144.09;5046280;28;20064;-73
2022/10/01 07:12:02;;;;;;;0.00;0.00;;;;;;;12.39;100.00;100143.25;5039218;28;20053;-71
2022/10/01 07:14:28;;;;;;;0.10;0.10;;;;;;;12.47;100.00;100161.34;5038333;28;20044;-73
2022/10/01 07:16:53;;;;;;;0.10;0.10;;;;;;;12.53;100.00;100154.53;5033915;28;20033;-72
2022/10/01 07:19:18;;;;;;;0.10;0.10;;;;;;;12.58;100.00;100152.22;5032379;28;20082;-71
2022/10/01 07:21:47;;;;;;;0.00;0.00;;;;;;;12.58;100.00;100161.16;5037411;28;20072;-71
2022/10/01 07:24:12;;;;;;;0.00;0.00;;;;;;;12.72;100.00;100167.03;5039764;28;20028;-71
2022/10/01 07:26:38;;;;;;;0.10;0.10;;;;;;;12.76;100.00;100168.44;5042074;28;20090;-72
2022/10/01 07:29:03;;;;;;;0.10;0.10;;;;;;;12.79;100.00;100170.84;5043636;28;20534;-69
2022/10/01 07:31:28;;;;;;;0.00;0.00;;;;;;;12.87;100.00;100162.00;5034449;28;20463;-73
2022/10/01 07:33:57;;;;;;;0.10;0.10;;;;;;;12.78;100.00;100161.06;5040143;28;21646;-71
2022/10/01 07:36:23;;;;;;;0.10;0.10;;;;;;;12.95;100.00;100163.94;5039450;28;20032;-70
2022/10/01 07:38:50;;;;;;;0.00;0.00;;;;;;;13.18;100.00;100180.53;5042721;28;20435;-70
2022/10/01 07:41:16;;;;;;;0.10;0.10;;;;;;;13.26;100.00;100174.38;5037412;28;20055;-74
2022/10/01 07:43:42;;;;;;;0.10;0.10;;;;;;;13.37;100.00;100175.97;5033707;28;20036;-77
2022/10/01 07:46:08;;;;;;;0.10;0.10;;;;;;;13.59;100.00;100185.50;5033051;28;20132;-76
2022/10/01 07:48:33;;;;;;;0.00;0.00;;;;;;;13.59;100.00;100175.53;5031879;28;20039;-72
2022/10/01 07:50:58;;;;;;;0.10;0.10;;;;;;;13.72;100.00;100193.19;5040172;28;20064;-71
2022/10/01 07:53:24;;;;;;;0.10;0.10;;;;;;;13.82;100.00;100193.09;5036655;28;20033;-75
2022/10/01 07:55:49;;;;;;;0.00;0.00;;;;;;;13.91;100.00;100211.03;5033720;28;20032;-72
2022/10/01 07:58:15;;;;;;;0.10;0.10;;;;;;;13.94;100.00;100216.09;5031845;28;21633;-77
2022/10/01 08:00:42;;;;;;;0.10;0.10;;;;;;;13.94;100.00;100219.66;5033118;28;20032;-72
2022/10/01 08:03:07;;;;;;;0.10;0.10;;;;;;;13.79;100.00;100213.97;5029236;28;20036;-73
2022/10/01 08:05:34;;;;;;;0.05;0.05;;;;;;;13.71;100.00;100192.31;5021054;28;20036;-74
2022/10/01 08:08:02;;;;;;;0.00;0.00;;;;;;;13.87;100.00;100231.25;5035035;28;20382;-73
2022/10/01 08:10:28;;;;;;;0.00;0.00;;;;;;;13.59;100.00;100201.66;5036107;28;20021;-72
2022/10/01 08:13:00;;;;;;;0.00;0.00;;;;;;;13.56;100.00;100194.72;5019560;28;20075;-70
2022/10/01 08:15:25;;;;;;;0.10;0.10;;;;;;;13.65;100.00;100236.97;5033429;28;20416;-71
2022/10/01 08:17:51;;;;;;;0.10;0.10;;;;;;;13.53;100.00;100218.47;5031947;28;20429;-72
2022/10/01 08:20:16;;;;;;;0.10;0.10;;;;;;;13.57;100.00;100218.00;5035228;28;20521;-71
2022/10/01 08:22:41;;;;;;;0.10;0.10;;;;;;;13.64;100.00;100223.59;5038229;28;20029;-72
2022/10/01 08:25:07;;;;;;;0.10;0.10;;;;;;;13.77;100.00;100250.22;5036284;28;20020;-75
2022/10/01 08:27:32;;;;;;;0.10;0.10;;;;;;;13.78;100.00;100241.09;5038752;28;20020;-70
2022/10/01 08:29:57;;;;;;;0.08;0.08;;;;;;;13.83;100.00;100254.97;5037393;28;20082;-71
2022/10/01 08:32:24;;;;;;;0.00;0.00;;;;;;;13.88;100.00;100251.84;5039547;28;20098;-71
2022/10/01 08:34:51;;;;;;;0.10;0.10;;;;;;;13.76;100.00;100246.66;5037323;28;20087;-73
2022/10/01 08:37:17;;;;;;;0.08;0.08;;;;;;;13.85;100.00;100252.97;5040114;28;20312;-70
2022/10/01 08:39:42;;;;;;;0.00;0.00;;;;;;;13.76;100.00;100260.16;5042286;28;20063;-71
2022/10/01 08:42:20;;;;;;;0.00;0.00;;;;;;;13.47;100.00;100242.34;5035717;28;20111;-72
2022/10/01 08:44:46;;;;;;;0.00;0.00;;;;;;;13.59;100.00;100264.53;5039419;28;20786;-72
2022/10/01 08:47:17;;;;;;;0.00;0.00;;;;;;;13.45;100.00;100263.22;5043792;28;20038;-74
2022/10/01 08:49:47;;;;;;;0.00;0.00;;;;;;;13.46;100.00;100269.47;5036575;28;20040;-71
2022/10/01 08:52:25;;;;;;;0.10;0.10;;;;;;;13.34;100.00;100258.88;5037359;28;20028;-71
2022/10/01 08:54:54;;;;;;;0.00;0.00;;;;;;;13.06;100.00;100228.41;5040831;28;20025;-70
2022/10/01 08:57:30;;;;;;;0.00;0.00;;;;;;;13.26;100.00;100260.63;5036404;28;20076;-71
2022/10/01 09:00:01;;;;;;;0.05;0.05;;;;;;;13.31;100.00;100264.56;5016750;28;20064;-70
2022/10/01 09:02:37;;;;;;;0.05;0.05;;;;;;;13.35;100.00;100271.34;5039629;28;20068;-70
2022/10/01 09:05:23;;;;;;;0.00;0.00;;;;;;;13.68;100.00;100270.84;5035953;28;20178;-71
2022/10/01 09:08:09;;;;;;;0.00;0.00;;;;;;;13.76;100.00;100280.91;5044665;28;20032;-70
2022/10/01 09:10:43;;;;;;;0.08;0.08;;;;;;;13.85;100.00;100288.06;5035508;28;20029;-73
2022/10/01 09:13:32;;;;;;;0.00;0.00;;;;;;;14.21;100.00;100279.06;5033563;28;20036;-76
2022/10/01 09:16:23;;;;;;;0.22;0.10;;;;;;;14.20;100.00;100271.97;5026622;28;20067;-70
2022/10/01 09:19:09;;;;;;;0.10;0.10;;;;;;;14.46;100.00;100280.09;5054158;28;20111;-72
2022/10/01 09:21:57;;;;;;;0.10;0.10;;;;;;;14.93;100.00;100299.66;5033945;28;20454;-75
2022/10/01 09:24:45;;;;;;;0.05;0.05;;;;;;;15.00;100.00;100308.81;5036444;28;20090;-76
2022/10/01 09:27:16;;;;;;;0.10;0.10;;;;;;;14.97;100.00;100309.97;5051287;28;20040;-81
2022/10/01 09:29:48;;;;;;;0.10;0.10;;;;;;;14.95;100.00;100286.81;5037452;28;20033;-73
2022/10/01 09:32:20;;;;;;;0.10;0.10;;;;;;;15.38;100.00;100303.03;5037993;28;20031;-73
2022/10/01 09:34:46;;;;;;;0.10;0.10;;;;;;;15.41;100.00;100306.25;5028216;28;20025;-75
2022/10/01 09:37:28;;;;;;;0.03;0.03;;;;;;;15.67;100.00;100313.41;5038614;28;20424;-73
2022/10/01 09:40:20;;;;;;;0.10;0.10;;;;;;;15.92;100.00;100320.78;5037120;28;20746;-73
2022/10/01 09:42:49;;;;;;;0.10;0.10;;;;;;;16.09;100.00;100313.53;5032298;28;20157;-78
2022/10/01 09:45:15;;;;;;;0.03;0.03;;;;;;;16.20;100.00;100302.34;5034799;28;20025;-73
2022/10/01 09:47:43;;;;;;;0.10;0.10;;;;;;;16.27;100.00;100310.66;5039178;28;20059;-77
2022/10/01 09:50:13;;;;;;;0.10;0.10;;;;;;;16.40;100.00;100316.38;5038209;28;20033;-72
2022/10/01 09:52:38;;;;;;;0.10;0.10;;;;;;;16.47;100.00;100308.41;5037508;28;20025;-73
2022/10/01 09:55:35;;;;;;;0.10;0.10;;;;;;;16.59;100.00;100325.16;5037931;28;20071;-76
2022/10/01 09:58:02;;;;;;;0.00;0.00;;;;;;;16.62;100.00;100319.41;5033161;28;20025;-70
2022/10/01 10:00:27;;;;;;;0.00;0.00;;;;;;;16.39;100.00;100322.81;5042789;28;20035;-73
2022/10/01 10:02:54;;;;;;;0.10;0.10;;;;;;;16.47;100.00;100322.81;5038200;28;20672;-73
2022/10/01 10:05:23;;;;;;;0.10;0.10;;;;;;;16.87;100.00;100330.19;5034737;28;20814;-70
2022/10/01 10:07:54;;;;;;;0.10;0.10;;;;;;;17.35;100.00;100327.50;5035218;28;20028;-74
2022/10/01 10:10:27;;;;;;;0.10;0.10;;;;;;;17.41;98.54;100334.97;5029397;28;20037;-76
2022/10/01 10:12:58;;;;;;;0.00;0.00;;;;;;;17.26;100.00;100342.13;5039436;28;20513;-79
2022/10/01 10:15:26;;;;;;;0.10;0.10;;;;;;;16.81;95.59;100349.88;5033097;28;20557;-77
2022/10/01 10:17:53;;;;;;;0.10;0.10;;;;;;;16.90;100.00;100346.13;5034223;28;20029;-81
2022/10/01 10:20:27;;;;;;;0.10;0.10;;;;;;;16.69;100.00;100349.34;5033249;28;20033;-76
2022/10/01 10:22:52;;;;;;;0.10;0.10;;;;;;;16.39;97.53;100314.69;5016407;28;20330;-81
2022/10/01 10:25:23;;;;;;;0.00;0.00;;;;;;;16.46;98.74;100333.81;5032995;28;20053;-78
2022/10/01 10:27:55;;;;;;;0.17;0.15;;;;;;;16.51;100.00;100323.31;5019829;28;20467;-76
2022/10/01 10:30:25;;;;;;;0.10;0.10;;;;;;;16.96;99.44;100339.16;5032918;28;20040;-78
2022/10/01 10:32:52;;;;;;;0.10;0.10;;;;;;;17.44;92.06;100336.47;5036407;28;20123;-79
2022/10/01 10:35:24;;;;;;;0.10;0.10;;;;;;;17.77;86.57;100345.25;5020544;28;20025;-74
2022/10/01 10:37:54;;;;;;;0.10;0.10;;;;;;;17.96;86.63;100354.00;5021887;28;20116;-75
2022/10/01 10:40:33;;;;;;;0.08;0.08;;;;;;;18.13;88.41;100350.16;5017019;28;20482;-79
2022/10/01 10:42:58;;;;;;;0.10;0.10;;;;;;;18.61;82.78;100394.44;5021045;28;20315;-74
2022/10/01 10:45:32;;;;;;;0.10;0.10;;;;;;;18.12;79.09;100353.06;5039396;28;20041;-78
2022/10/01 10:47:57;;;;;;;0.10;0.10;;;;;;;17.80;79.16;100387.53;5033372;28;20029;-76
2022/10/01 10:50:31;;;;;;;0.00;0.00;;;;;;;17.46;83.82;100389.56;5033367;28;20061;-74
2022/10/01 10:52:57;;;;;;;0.08;0.08;;;;;;;17.35;85.37;100379.06;5034486;28;20029;-76
2022/10/01 10:55:29;;;;;;;0.10;0.10;;;;;;;17.85;84.49;100409.56;5036226;28;20179;-79
2022/10/01 10:57:56;;;;;;;0.10;0.10;;;;;;;18.41;78.16;100390.34;5035075;28;20526;-76
2022/10/01 11:00:23;;;;;;;0.10;0.10;;;;;;;18.99;77.03;100384.41;5018001;28;20072;-73
2022/10/01 11:02:49;;;;;;;0.10;0.10;;;;;;;19.28;72.20;100411.81;5025174;28;20538;-77
2022/10/01 11:05:18;;;;;;;0.10;0.10;;;;;;;19.33;69.92;100414.84;5043009;28;20040;-73
2022/10/01 11:07:44;;;;;;;0.10;0.10;;;;;;;20.01;74.64;100406.50;5043301;28;20325;-77
2022/10/01 11:10:38;;;;;;;0.10;0.10;;;;;;;20.18;67.45;100398.91;5041253;28;20746;-81
2022/10/01 11:13:05;;;;;;;0.00;0.00;;;;;;;21.16;71.47;100410.25;5042846;28;20033;-78
2022/10/01 11:15:54;;;;;;;0.10;0.10;;;;;;;21.23;64.20;100431.09;5034465;28;20029;-80
2022/10/01 11:18:32;;;;;;;0.10;0.10;;;;;;;21.46;64.22;100426.38;5036763;28;20071;-75
2022/10/01 11:21:29;;;;;;;0.10;0.10;;;;;;;20.94;61.32;100429.41;5039849;28;20025;-76
2022/10/01 11:24:14;;;;;;;0.30;0.30;;;;;;;20.80;60.67;100396.56;5039686;28;20407;-80
2022/10/01 11:27:12;;;;;;;0.00;0.00;;;;;;;21.20;63.47;100436.94;5033769;28;20111;-77
2022/10/01 11:30:14;;;;;;;0.10;0.10;;;;;;;21.74;56.65;100448.22;5031187;28;20049;-74